sensor_id;sensor_type;location;lat;lon;timestamp;P1;durP1;ratioP1;P2;durP2;ratioP2
40373;SDS011;26079;45.958;12.492;2022-10-15T00:01:37;18.83;;;13.63;;
40373;SDS011;26079;45.958;12.492;2022-10-15T00:04:03;18.40;;;13.20;;
40373;SDS011;26079;45.958;12.492;2022-10-15T00:06:29;19.63;;;15.68;;
40373;SDS011;26079;45.958;12.492;2022-10-15T00:08:55;19.50;;;14.20;;
40373;SDS011;26079;45.958;12.492;2022-10-15T00:11:22;16.95;;;11.48;;
40373;SDS011;26079;45.958;12.492;2022-10-15T00:13:51;20.08;;;14.05;;
40373;SDS011;26079;45.958;12.492;2022-10-15T00:16:18;14.90;;;11.93;;
40373;SDS011;26079;45.958;12.492;2022-10-15T00:18:46;16.35;;;12.75;;
40373;SDS011;26079;45.958;12.492;2022-10-15T00:21:13;16.10;;;13.52;;
40373;SDS011;26079;45.958;12.492;2022-10-15T00:23:39;19.60;;;12.95;;
40373;SDS011;26079;45.958;12.492;2022-10-15T00:26:16;14.95;;;11.82;;
40373;SDS011;26079;45.958;12.492;2022-10-15T00:28:43;14.95;;;11.45;;
40373;SDS011;26079;45.958;12.492;2022-10-15T00:31:10;25.15;;;13.05;;
40373;SDS011;26079;45.958;12.492;2022-10-15T00:33:37;22.10;;;13.75;;
40373;SDS011;26079;45.958;12.492;2022-10-15T00:36:05;18.02;;;12.23;;
40373;SDS011;26079;45.958;12.492;2022-10-15T00:38:33;17.90;;;12.85;;
40373;SDS011;26079;45.958;12.492;2022-10-15T00:40:59;20.73;;;14.05;;
40373;SDS011;26079;45.958;12.492;2022-10-15T00:43:38;15.43;;;11.93;;
40373;SDS011;26079;45.958;12.492;2022-10-15T00:46:16;17.13;;;12.77;;
40373;SDS011;26079;45.958;12.492;2022-10-15T00:48:47;16.92;;;13.85;;
40373;SDS011;26079;45.958;12.492;2022-10-15T00:51:17;16.83;;;13.13;;
40373;SDS011;26079;45.958;12.492;2022-10-15T00:53:45;16.45;;;13.45;;
40373;SDS011;26079;45.958;12.492;2022-10-15T00:56:12;19.17;;;14.82;;
40373;SDS011;26079;45.958;12.492;2022-10-15T00:58:41;19.02;;;14.05;;
40373;SDS011;26079;45.958;12.492;2022-10-15T01:01:07;18.20;;;13.23;;
40373;SDS011;26079;45.958;12.492;2022-10-15T01:03:33;14.60;;;12.38;;
40373;SDS011;26079;45.958;12.492;2022-10-15T01:06:00;17.90;;;12.90;;
40373;SDS011;26079;45.958;12.492;2022-10-15T01:08:26;16.80;;;13.02;;
40373;SDS011;26079;45.958;12.492;2022-10-15T01:13:23;17.05;;;13.68;;
40373;SDS011;26079;45.958;12.492;2022-10-15T01:16:19;18.23;;;12.48;;
40373;SDS011;26079;45.958;12.492;2022-10-15T01:21:24;15.23;;;12.23;;
40373;SDS011;26079;45.958;12.492;2022-10-15T01:37:01;18.30;;;13.00;;
40373;SDS011;26079;45.958;12.492;2022-10-15T01:39:49;19.10;;;12.90;;
40373;SDS011;26079;45.958;12.492;2022-10-15T01:42:31;17.45;;;12.88;;
40373;SDS011;26079;45.958;12.492;2022-10-15T01:45:08;17.17;;;13.43;;
40373;SDS011;26079;45.958;12.492;2022-10-15T01:47:39;16.88;;;12.30;;
40373;SDS011;26079;45.958;12.492;2022-10-15T01:50:07;15.07;;;12.02;;
40373;SDS011;26079;45.958;12.492;2022-10-15T01:52:35;19.08;;;13.43;;
40373;SDS011;26079;45.958;12.492;2022-10-15T01:55:05;18.83;;;12.18;;
40373;SDS011;26079;45.958;12.492;2022-10-15T01:57:34;17.27;;;12.68;;
40373;SDS011;26079;45.958;12.492;2022-10-15T02:00:03;19.15;;;12.85;;
40373;SDS011;26079;45.958;12.492;2022-10-15T02:02:29;14.80;;;11.98;;
40373;SDS011;26079;45.958;12.492;2022-10-15T02:04:55;19.23;;;13.90;;
40373;SDS011;26079;45.958;12.492;2022-10-15T02:10:13;17.60;;;12.82;;
40373;SDS011;26079;45.958;12.492;2022-10-15T02:18:01;16.15;;;12.15;;
40373;SDS011;26079;45.958;12.492;2022-10-15T02:23:12;18.00;;;12.95;;
40373;SDS011;26079;45.958;12.492;2022-10-15T02:25:44;16.48;;;14.68;;
40373;SDS011;26079;45.958;12.492;2022-10-15T02:28:11;16.73;;;13.23;;
40373;SDS011;26079;45.958;12.492;2022-10-15T02:30:39;27.52;;;15.07;;
40373;SDS011;26079;45.958;12.492;2022-10-15T02:33:07;23.17;;;14.57;;
40373;SDS011;26079;45.958;12.492;2022-10-15T02:35:34;18.27;;;13.88;;
40373;SDS011;26079;45.958;12.492;2022-10-15T02:38:01;19.95;;;14.07;;
40373;SDS011;26079;45.958;12.492;2022-10-15T02:40:31;18.98;;;14.52;;
40373;SDS011;26079;45.958;12.492;2022-10-15T02:42:58;18.00;;;12.32;;
40373;SDS011;26079;45.958;12.492;2022-10-15T02:45:24;18.52;;;14.13;;
40373;SDS011;26079;45.958;12.492;2022-10-15T02:47:50;17.08;;;13.88;;
40373;SDS011;26079;45.958;12.492;2022-10-15T02:50:16;20.45;;;13.32;;
40373;SDS011;26079;45.958;12.492;2022-10-15T02:52:42;17.70;;;14.80;;
40373;SDS011;26079;45.958;12.492;2022-10-15T02:55:08;17.30;;;13.82;;
40373;SDS011;26079;45.958;12.492;2022-10-15T02:57:34;18.30;;;14.52;;
40373;SDS011;26079;45.958;12.492;2022-10-15T03:00:00;18.50;;;14.23;;
40373;SDS011;26079;45.958;12.492;2022-10-15T03:02:26;24.65;;;15.05;;
40373;SDS011;26079;45.958;12.492;2022-10-15T03:04:52;17.50;;;15.55;;
40373;SDS011;26079;45.958;12.492;2022-10-15T03:07:18;17.67;;;14.40;;
40373;SDS011;26079;45.958;12.492;2022-10-15T03:09:44;19.58;;;15.73;;
40373;SDS011;26079;45.958;12.492;2022-10-15T03:12:10;23.23;;;15.98;;
40373;SDS011;26079;45.958;12.492;2022-10-15T03:14:36;18.45;;;14.98;;
40373;SDS011;26079;45.958;12.492;2022-10-15T03:17:02;18.73;;;14.15;;
40373;SDS011;26079;45.958;12.492;2022-10-15T03:19:28;18.10;;;14.02;;
40373;SDS011;26079;45.958;12.492;2022-10-15T03:21:54;19.67;;;14.77;;
40373;SDS011;26079;45.958;12.492;2022-10-15T03:24:20;21.52;;;15.95;;
40373;SDS011;26079;45.958;12.492;2022-10-15T03:26:46;21.98;;;15.95;;
40373;SDS011;26079;45.958;12.492;2022-10-15T03:29:12;16.52;;;13.90;;
40373;SDS011;26079;45.958;12.492;2022-10-15T03:31:38;17.95;;;14.65;;
40373;SDS011;26079;45.958;12.492;2022-10-15T03:34:04;17.67;;;13.80;;
40373;SDS011;26079;45.958;12.492;2022-10-15T03:36:30;22.67;;;15.75;;
40373;SDS011;26079;45.958;12.492;2022-10-15T03:38:56;19.80;;;13.75;;
40373;SDS011;26079;45.958;12.492;2022-10-15T03:41:22;18.40;;;14.77;;
40373;SDS011;26079;45.958;12.492;2022-10-15T03:43:49;27.38;;;17.20;;
40373;SDS011;26079;45.958;12.492;2022-10-15T03:46:15;23.08;;;15.38;;
40373;SDS011;26079;45.958;12.492;2022-10-15T03:48:41;18.63;;;15.38;;
40373;SDS011;26079;45.958;12.492;2022-10-15T03:51:07;19.05;;;13.98;;
40373;SDS011;26079;45.958;12.492;2022-10-15T03:53:33;18.08;;;14.35;;
40373;SDS011;26079;45.958;12.492;2022-10-15T03:56:03;18.88;;;14.05;;
40373;SDS011;26079;45.958;12.492;2022-10-15T03:58:29;16.55;;;13.80;;
40373;SDS011;26079;45.958;12.492;2022-10-15T04:00:55;18.88;;;15.07;;
40373;SDS011;26079;45.958;12.492;2022-10-15T04:03:21;19.70;;;14.73;;
40373;SDS011;26079;45.958;12.492;2022-10-15T04:05:50;20.35;;;15.43;;
40373;SDS011;26079;45.958;12.492;2022-10-15T04:08:17;18.85;;;14.48;;
40373;SDS011;26079;45.958;12.492;2022-10-15T04:10:43;19.63;;;14.38;;
40373;SDS011;26079;45.958;12.492;2022-10-15T04:13:08;16.73;;;13.95;;
40373;SDS011;26079;45.958;12.492;2022-10-15T04:15:37;18.40;;;14.80;;
40373;SDS011;26079;45.958;12.492;2022-10-15T04:18:03;17.02;;;14.05;;
40373;SDS011;26079;45.958;12.492;2022-10-15T04:20:29;19.45;;;14.63;;
40373;SDS011;26079;45.958;12.492;2022-10-15T04:22:55;20.35;;;15.70;;
40373;SDS011;26079;45.958;12.492;2022-10-15T04:25:21;22.60;;;15.10;;
40373;SDS011;26079;45.958;12.492;2022-10-15T04:27:47;22.42;;;15.65;;
40373;SDS011;26079;45.958;12.492;2022-10-15T04:30:13;23.50;;;15.85;;
40373;SDS011;26079;45.958;12.492;2022-10-15T04:32:38;20.67;;;15.80;;
40373;SDS011;26079;45.958;12.492;2022-10-15T04:35:04;20.17;;;15.13;;
40373;SDS011;26079;45.958;12.492;2022-10-15T04:37:33;20.50;;;16.88;;
40373;SDS011;26079;45.958;12.492;2022-10-15T04:39:59;21.92;;;16.80;;
40373;SDS011;26079;45.958;12.492;2022-10-15T04:42:27;20.75;;;16.60;;
40373;SDS011;26079;45.958;12.492;2022-10-15T04:44:53;22.33;;;15.50;;
40373;SDS011;26079;45.958;12.492;2022-10-15T04:47:19;20.50;;;15.30;;
40373;SDS011;26079;45.958;12.492;2022-10-15T04:49:45;19.13;;;15.40;;
40373;SDS011;26079;45.958;12.492;2022-10-15T04:52:10;19.75;;;16.35;;
40373;SDS011;26079;45.958;12.492;2022-10-15T04:54:36;18.13;;;16.17;;
40373;SDS011;26079;45.958;12.492;2022-10-15T04:57:02;21.13;;;16.40;;
40373;SDS011;26079;45.958;12.492;2022-10-15T04:59:29;19.85;;;15.13;;
40373;SDS011;26079;45.958;12.492;2022-10-15T05:01:54;18.90;;;15.38;;
40373;SDS011;26079;45.958;12.492;2022-10-15T05:04:20;22.42;;;15.68;;
40373;SDS011;26079;45.958;12.492;2022-10-15T05:06:46;18.63;;;14.73;;
40373;SDS011;26079;45.958;12.492;2022-10-15T05:09:12;21.33;;;16.92;;
40373;SDS011;26079;45.958;12.492;2022-10-15T05:11:37;21.20;;;16.73;;
40373;SDS011;26079;45.958;12.492;2022-10-15T05:14:03;20.00;;;16.55;;
40373;SDS011;26079;45.958;12.492;2022-10-15T05:16:29;21.05;;;16.35;;
40373;SDS011;26079;45.958;12.492;2022-10-15T05:18:59;20.75;;;16.35;;
40373;SDS011;26079;45.958;12.492;2022-10-15T05:21:28;21.13;;;15.70;;
40373;SDS011;26079;45.958;12.492;2022-10-15T05:23:55;20.13;;;15.05;;
40373;SDS011;26079;45.958;12.492;2022-10-15T05:26:24;17.40;;;14.93;;
40373;SDS011;26079;45.958;12.492;2022-10-15T05:28:51;21.00;;;15.13;;
40373;SDS011;26079;45.958;12.492;2022-10-15T05:31:19;18.00;;;14.40;;
40373;SDS011;26079;45.958;12.492;2022-10-15T05:33:47;19.08;;;15.57;;
40373;SDS011;26079;45.958;12.492;2022-10-15T05:36:21;17.98;;;15.57;;
40373;SDS011;26079;45.958;12.492;2022-10-15T05:38:53;20.17;;;16.35;;
40373;SDS011;26079;45.958;12.492;2022-10-15T05:41:23;20.67;;;14.75;;
40373;SDS011;26079;45.958;12.492;2022-10-15T05:43:50;19.92;;;15.30;;
40373;SDS011;26079;45.958;12.492;2022-10-15T05:46:17;20.95;;;14.48;;
40373;SDS011;26079;45.958;12.492;2022-10-15T05:48:50;18.60;;;14.50;;
40373;SDS011;26079;45.958;12.492;2022-10-15T05:51:20;24.10;;;17.35;;
40373;SDS011;26079;45.958;12.492;2022-10-15T05:53:50;18.60;;;15.02;;
40373;SDS011;26079;45.958;12.492;2022-10-15T05:56:17;18.83;;;14.65;;
40373;SDS011;26079;45.958;12.492;2022-10-15T05:58:43;24.45;;;15.52;;
40373;SDS011;26079;45.958;12.492;2022-10-15T06:01:10;26.88;;;16.45;;
40373;SDS011;26079;45.958;12.492;2022-10-15T06:03:37;23.63;;;15.80;;
40373;SDS011;26079;45.958;12.492;2022-10-15T06:06:04;18.92;;;15.20;;
40373;SDS011;26079;45.958;12.492;2022-10-15T06:08:41;20.45;;;15.80;;
40373;SDS011;26079;45.958;12.492;2022-10-15T06:11:07;21.88;;;15.80;;
40373;SDS011;26079;45.958;12.492;2022-10-15T06:13:33;26.13;;;16.52;;
40373;SDS011;26079;45.958;12.492;2022-10-15T06:15:59;20.58;;;15.93;;
40373;SDS011;26079;45.958;12.492;2022-10-15T06:18:25;24.98;;;14.60;;
40373;SDS011;26079;45.958;12.492;2022-10-15T06:20:51;23.25;;;16.33;;
40373;SDS011;26079;45.958;12.492;2022-10-15T06:23:17;20.65;;;16.70;;
40373;SDS011;26079;45.958;12.492;2022-10-15T06:25:43;23.60;;;16.48;;
40373;SDS011;26079;45.958;12.492;2022-10-15T06:28:09;19.70;;;15.50;;
40373;SDS011;26079;45.958;12.492;2022-10-15T06:30:35;21.92;;;15.90;;
40373;SDS011;26079;45.958;12.492;2022-10-15T06:33:01;30.00;;;18.45;;
40373;SDS011;26079;45.958;12.492;2022-10-15T06:35:27;20.27;;;15.93;;
40373;SDS011;26079;45.958;12.492;2022-10-15T06:37:54;20.75;;;16.00;;
40373;SDS011;26079;45.958;12.492;2022-10-15T06:40:20;22.48;;;17.60;;
40373;SDS011;26079;45.958;12.492;2022-10-15T06:42:46;20.67;;;16.98;;
40373;SDS011;26079;45.958;12.492;2022-10-15T06:45:12;22.90;;;17.73;;
40373;SDS011;26079;45.958;12.492;2022-10-15T06:47:40;23.40;;;16.40;;
40373;SDS011;26079;45.958;12.492;2022-10-15T06:50:06;24.75;;;17.05;;
40373;SDS011;26079;45.958;12.492;2022-10-15T06:52:33;21.63;;;16.88;;
40373;SDS011;26079;45.958;12.492;2022-10-15T06:54:59;21.80;;;16.35;;
40373;SDS011;26079;45.958;12.492;2022-10-15T06:57:27;19.38;;;17.08;;
40373;SDS011;26079;45.958;12.492;2022-10-15T06:59:53;27.80;;;18.50;;
40373;SDS011;26079;45.958;12.492;2022-10-15T07:02:19;24.77;;;18.02;;
40373;SDS011;26079;45.958;12.492;2022-10-15T07:04:45;21.80;;;18.20;;
40373;SDS011;26079;45.958;12.492;2022-10-15T07:07:12;24.98;;;17.98;;
40373;SDS011;26079;45.958;12.492;2022-10-15T07:09:38;21.52;;;18.13;;
40373;SDS011;26079;45.958;12.492;2022-10-15T07:12:04;33.42;;;21.10;;
40373;SDS011;26079;45.958;12.492;2022-10-15T07:14:29;25.67;;;20.88;;
40373;SDS011;26079;45.958;12.492;2022-10-15T07:16:56;28.10;;;22.10;;
40373;SDS011;26079;45.958;12.492;2022-10-15T07:19:22;29.08;;;21.13;;
40373;SDS011;26079;45.958;12.492;2022-10-15T07:21:48;27.58;;;21.38;;
40373;SDS011;26079;45.958;12.492;2022-10-15T07:24:14;25.58;;;20.45;;
40373;SDS011;26079;45.958;12.492;2022-10-15T07:26:39;27.33;;;20.98;;
40373;SDS011;26079;45.958;12.492;2022-10-15T07:29:05;28.42;;;21.48;;
40373;SDS011;26079;45.958;12.492;2022-10-15T07:31:31;26.70;;;21.35;;
40373;SDS011;26079;45.958;12.492;2022-10-15T07:33:57;26.15;;;19.90;;
40373;SDS011;26079;45.958;12.492;2022-10-15T07:36:23;27.80;;;21.10;;
40373;SDS011;26079;45.958;12.492;2022-10-15T07:38:49;30.77;;;21.48;;
40373;SDS011;26079;45.958;12.492;2022-10-15T07:41:15;26.35;;;22.23;;
40373;SDS011;26079;45.958;12.492;2022-10-15T07:43:41;28.55;;;20.42;;
40373;SDS011;26079;45.958;12.492;2022-10-15T07:46:07;27.88;;;21.23;;
40373;SDS011;26079;45.958;12.492;2022-10-15T07:48:33;26.52;;;20.42;;
40373;SDS011;26079;45.958;12.492;2022-10-15T07:51:00;27.90;;;21.67;;
40373;SDS011;26079;45.958;12.492;2022-10-15T07:53:28;29.13;;;22.60;;
40373;SDS011;26079;45.958;12.492;2022-10-15T07:55:58;27.35;;;21.15;;
40373;SDS011;26079;45.958;12.492;2022-10-15T07:58:25;26.52;;;21.75;;
40373;SDS011;26079;45.958;12.492;2022-10-15T08:00:51;28.55;;;22.15;;
40373;SDS011;26079;45.958;12.492;2022-10-15T08:03:17;28.90;;;22.60;;
40373;SDS011;26079;45.958;12.492;2022-10-15T08:05:42;35.25;;;23.52;;
40373;SDS011;26079;45.958;12.492;2022-10-15T08:08:09;28.70;;;23.08;;
40373;SDS011;26079;45.958;12.492;2022-10-15T08:10:34;29.10;;;24.30;;
40373;SDS011;26079;45.958;12.492;2022-10-15T08:13:00;29.08;;;22.77;;
40373;SDS011;26079;45.958;12.492;2022-10-15T08:15:26;29.75;;;22.75;;
40373;SDS011;26079;45.958;12.492;2022-10-15T08:17:52;33.10;;;23.08;;
40373;SDS011;26079;45.958;12.492;2022-10-15T08:20:19;32.42;;;22.15;;
40373;SDS011;26079;45.958;12.492;2022-10-15T08:22:45;31.58;;;23.13;;
40373;SDS011;26079;45.958;12.492;2022-10-15T08:25:11;31.80;;;22.02;;
40373;SDS011;26079;45.958;12.492;2022-10-15T08:27:37;27.83;;;22.92;;
40373;SDS011;26079;45.958;12.492;2022-10-15T08:30:03;27.95;;;22.42;;
40373;SDS011;26079;45.958;12.492;2022-10-15T08:32:29;29.50;;;21.90;;
40373;SDS011;26079;45.958;12.492;2022-10-15T08:34:55;23.67;;;20.77;;
40373;SDS011;26079;45.958;12.492;2022-10-15T08:37:21;27.42;;;22.38;;
40373;SDS011;26079;45.958;12.492;2022-10-15T08:39:47;26.38;;;20.70;;
40373;SDS011;26079;45.958;12.492;2022-10-15T08:42:15;24.15;;;20.95;;
40373;SDS011;26079;45.958;12.492;2022-10-15T08:44:56;34.83;;;22.52;;
40373;SDS011;26079;45.958;12.492;2022-10-15T08:50:37;25.27;;;20.35;;
40373;SDS011;26079;45.958;12.492;2022-10-15T08:53:23;26.73;;;21.75;;
40373;SDS011;26079;45.958;12.492;2022-10-15T08:55:52;24.27;;;21.23;;
40373;SDS011;26079;45.958;12.492;2022-10-15T09:01:49;24.92;;;20.40;;
40373;SDS011;26079;45.958;12.492;2022-10-15T09:07:05;26.23;;;20.08;;
40373;SDS011;26079;45.958;12.492;2022-10-15T09:09:47;26.13;;;21.05;;
40373;SDS011;26079;45.958;12.492;2022-10-15T09:14:56;25.48;;;19.48;;
40373;SDS011;26079;45.958;12.492;2022-10-15T09:17:25;26.70;;;21.65;;
40373;SDS011;26079;45.958;12.492;2022-10-15T09:19:54;24.02;;;19.75;;
40373;SDS011;26079;45.958;12.492;2022-10-15T09:22:25;24.85;;;21.55;;
40373;SDS011;26079;45.958;12.492;2022-10-15T09:24:53;22.27;;;19.35;;
40373;SDS011;26079;45.958;12.492;2022-10-15T09:29:49;24.90;;;20.13;;
40373;SDS011;26079;45.958;12.492;2022-10-15T09:32:33;22.15;;;19.42;;
40373;SDS011;26079;45.958;12.492;2022-10-15T09:35:14;28.23;;;21.38;;
40373;SDS011;26079;45.958;12.492;2022-10-15T09:40:45;24.13;;;21.38;;
40373;SDS011;26079;45.958;12.492;2022-10-15T09:43:40;29.42;;;22.52;;
40373;SDS011;26079;45.958;12.492;2022-10-15T09:46:08;24.50;;;21.20;;
40373;SDS011;26079;45.958;12.492;2022-10-15T09:48:39;27.35;;;21.70;;
40373;SDS011;26079;45.958;12.492;2022-10-15T09:56:25;23.17;;;20.85;;
40373;SDS011;26079;45.958;12.492;2022-10-15T09:59:02;28.75;;;21.52;;
40373;SDS011;26079;45.958;12.492;2022-10-15T10:01:29;23.00;;;20.50;;
40373;SDS011;26079;45.958;12.492;2022-10-15T10:04:13;26.50;;;20.08;;
40373;SDS011;26079;45.958;12.492;2022-10-15T10:06:46;24.88;;;19.75;;
40373;SDS011;26079;45.958;12.492;2022-10-15T10:09:17;24.92;;;21.58;;
40373;SDS011;26079;45.958;12.492;2022-10-15T10:11:56;27.50;;;21.08;;
40373;SDS011;26079;45.958;12.492;2022-10-15T10:14:31;23.02;;;20.60;;
40373;SDS011;26079;45.958;12.492;2022-10-15T10:19:29;25.58;;;19.77;;
40373;SDS011;26079;45.958;12.492;2022-10-15T10:22:04;25.90;;;20.35;;
40373;SDS011;26079;45.958;12.492;2022-10-15T10:24:38;24.67;;;21.10;;
40373;SDS011;26079;45.958;12.492;2022-10-15T10:27:11;24.67;;;21.38;;
40373;SDS011;26079;45.958;12.492;2022-10-15T10:29:54;22.02;;;19.55;;
40373;SDS011;26079;45.958;12.492;2022-10-15T10:32:29;26.25;;;21.05;;
40373;SDS011;26079;45.958;12.492;2022-10-15T10:34:58;22.08;;;19.48;;
40373;SDS011;26079;45.958;12.492;2022-10-15T10:37:26;26.67;;;20.98;;
40373;SDS011;26079;45.958;12.492;2022-10-15T10:39:56;22.02;;;19.75;;
40373;SDS011;26079;45.958;12.492;2022-10-15T10:42:32;29.63;;;21.60;;
40373;SDS011;26079;45.958;12.492;2022-10-15T10:45:16;24.85;;;21.42;;
40373;SDS011;26079;45.958;12.492;2022-10-15T10:47:47;22.50;;;20.10;;
40373;SDS011;26079;45.958;12.492;2022-10-15T10:50:29;26.08;;;19.98;;
40373;SDS011;26079;45.958;12.492;2022-10-15T10:52:57;22.58;;;19.55;;
40373;SDS011;26079;45.958;12.492;2022-10-15T10:55:42;24.55;;;20.15;;
40373;SDS011;26079;45.958;12.492;2022-10-15T10:58:11;22.88;;;20.50;;
40373;SDS011;26079;45.958;12.492;2022-10-15T11:00:47;27.00;;;20.60;;
40373;SDS011;26079;45.958;12.492;2022-10-15T11:05:40;32.75;;;23.58;;
40373;SDS011;26079;45.958;12.492;2022-10-15T11:08:20;22.75;;;20.05;;
40373;SDS011;26079;45.958;12.492;2022-10-15T11:13:51;20.90;;;18.63;;
40373;SDS011;26079;45.958;12.492;2022-10-15T11:19:21;25.05;;;20.50;;
40373;SDS011;26079;45.958;12.492;2022-10-15T11:22:02;21.15;;;18.95;;
40373;SDS011;26079;45.958;12.492;2022-10-15T11:38:12;31.30;;;19.20;;
40373;SDS011;26079;45.958;12.492;2022-10-15T11:56:30;23.23;;;19.30;;
40373;SDS011;26079;45.958;12.492;2022-10-15T11:59:05;26.23;;;20.40;;
40373;SDS011;26079;45.958;12.492;2022-10-15T12:04:57;29.67;;;22.67;;
40373;SDS011;26079;45.958;12.492;2022-10-15T12:07:34;29.13;;;20.42;;
40373;SDS011;26079;45.958;12.492;2022-10-15T12:10:06;24.20;;;20.75;;
40373;SDS011;26079;45.958;12.492;2022-10-15T12:12:46;21.48;;;18.98;;
40373;SDS011;26079;45.958;12.492;2022-10-15T12:18:41;21.73;;;19.17;;
40373;SDS011;26079;45.958;12.492;2022-10-15T12:24:01;23.20;;;19.67;;
40373;SDS011;26079;45.958;12.492;2022-10-15T12:26:31;21.70;;;19.45;;
40373;SDS011;26079;45.958;12.492;2022-10-15T12:28:59;34.40;;;19.60;;
40373;SDS011;26079;45.958;12.492;2022-10-15T12:31:43;21.55;;;19.35;;
40373;SDS011;26079;45.958;12.492;2022-10-15T12:37:13;22.85;;;20.17;;
40373;SDS011;26079;45.958;12.492;2022-10-15T12:39:42;21.58;;;18.55;;
40373;SDS011;26079;45.958;12.492;2022-10-15T12:42:18;21.13;;;18.83;;
40373;SDS011;26079;45.958;12.492;2022-10-15T12:44:56;23.40;;;20.95;;
40373;SDS011;26079;45.958;12.492;2022-10-15T12:50:15;24.27;;;18.80;;
40373;SDS011;26079;45.958;12.492;2022-10-15T12:52:57;22.33;;;19.95;;
40373;SDS011;26079;45.958;12.492;2022-10-15T12:55:24;25.75;;;19.13;;
40373;SDS011;26079;45.958;12.492;2022-10-15T12:57:51;24.92;;;20.80;;
40373;SDS011;26079;45.958;12.492;2022-10-15T13:02:50;23.08;;;20.58;;
40373;SDS011;26079;45.958;12.492;2022-10-15T13:07:51;26.70;;;20.25;;
40373;SDS011;26079;45.958;12.492;2022-10-15T13:10:39;24.48;;;19.65;;
40373;SDS011;26079;45.958;12.492;2022-10-15T13:13:13;27.90;;;20.95;;
40373;SDS011;26079;45.958;12.492;2022-10-15T13:15:49;21.20;;;19.05;;
40373;SDS011;26079;45.958;12.492;2022-10-15T13:18:21;22.63;;;19.20;;
40373;SDS011;26079;45.958;12.492;2022-10-15T13:20:47;22.73;;;20.27;;
40373;SDS011;26079;45.958;12.492;2022-10-15T13:23:21;23.25;;;18.73;;
40373;SDS011;26079;45.958;12.492;2022-10-15T13:25:51;21.88;;;18.52;;
40373;SDS011;26079;45.958;12.492;2022-10-15T13:28:37;25.33;;;19.75;;
40373;SDS011;26079;45.958;12.492;2022-10-15T13:31:06;21.40;;;18.67;;
40373;SDS011;26079;45.958;12.492;2022-10-15T13:33:52;21.73;;;19.13;;
40373;SDS011;26079;45.958;12.492;2022-10-15T13:36:23;27.92;;;20.23;;
40373;SDS011;26079;45.958;12.492;2022-10-15T13:39:34;23.80;;;19.98;;
40373;SDS011;26079;45.958;12.492;2022-10-15T13:42:07;24.95;;;21.20;;
40373;SDS011;26079;45.958;12.492;2022-10-15T13:44:41;31.10;;;21.23;;
40373;SDS011;26079;45.958;12.492;2022-10-15T13:50:09;24.40;;;20.60;;
40373;SDS011;26079;45.958;12.492;2022-10-15T13:52:40;23.55;;;20.30;;
40373;SDS011;26079;45.958;12.492;2022-10-15T13:58:43;27.45;;;23.25;;
40373;SDS011;26079;45.958;12.492;2022-10-15T14:03:35;27.77;;;21.10;;
40373;SDS011;26079;45.958;12.492;2022-10-15T14:08:46;26.15;;;21.45;;
40373;SDS011;26079;45.958;12.492;2022-10-15T14:11:13;25.27;;;20.67;;
40373;SDS011;26079;45.958;12.492;2022-10-15T14:13:50;25.08;;;21.17;;
40373;SDS011;26079;45.958;12.492;2022-10-15T14:16:34;23.73;;;20.65;;
40373;SDS011;26079;45.958;12.492;2022-10-15T14:19:10;25.52;;;21.75;;
40373;SDS011;26079;45.958;12.492;2022-10-15T14:21:43;23.83;;;21.23;;
40373;SDS011;26079;45.958;12.492;2022-10-15T14:24:12;26.42;;;21.35;;
40373;SDS011;26079;45.958;12.492;2022-10-15T14:26:40;25.60;;;20.00;;
40373;SDS011;26079;45.958;12.492;2022-10-15T14:29:28;25.27;;;22.45;;
40373;SDS011;26079;45.958;12.492;2022-10-15T14:31:58;25.23;;;20.45;;
40373;SDS011;26079;45.958;12.492;2022-10-15T14:34:25;33.20;;;21.60;;
40373;SDS011;26079;45.958;12.492;2022-10-15T14:36:58;27.33;;;20.90;;
40373;SDS011;26079;45.958;12.492;2022-10-15T14:41:57;31.92;;;23.10;;
40373;SDS011;26079;45.958;12.492;2022-10-15T14:44:43;34.63;;;23.13;;
40373;SDS011;26079;45.958;12.492;2022-10-15T14:49:49;33.08;;;23.00;;
40373;SDS011;26079;45.958;12.492;2022-10-15T14:52:20;25.83;;;21.83;;
40373;SDS011;26079;45.958;12.492;2022-10-15T14:57:35;26.90;;;23.33;;
40373;SDS011;26079;45.958;12.492;2022-10-15T15:00:04;28.45;;;22.30;;
40373;SDS011;26079;45.958;12.492;2022-10-15T15:02:38;24.05;;;21.52;;
40373;SDS011;26079;45.958;12.492;2022-10-15T15:07:36;28.83;;;21.23;;
40373;SDS011;26079;45.958;12.492;2022-10-15T15:10:02;25.27;;;21.88;;
40373;SDS011;26079;45.958;12.492;2022-10-15T15:12:29;32.25;;;22.92;;
40373;SDS011;26079;45.958;12.492;2022-10-15T15:14:55;29.85;;;25.63;;
40373;SDS011;26079;45.958;12.492;2022-10-15T15:17:24;34.20;;;24.38;;
40373;SDS011;26079;45.958;12.492;2022-10-15T15:19:53;27.17;;;23.90;;
40373;SDS011;26079;45.958;12.492;2022-10-15T15:22:24;29.60;;;23.77;;
40373;SDS011;26079;45.958;12.492;2022-10-15T15:24:52;28.20;;;23.07;;
40373;SDS011;26079;45.958;12.492;2022-10-15T15:27:23;28.77;;;23.70;;
40373;SDS011;26079;45.958;12.492;2022-10-15T15:29:50;29.70;;;23.90;;
40373;SDS011;26079;45.958;12.492;2022-10-15T15:32:16;34.28;;;25.17;;
40373;SDS011;26079;45.958;12.492;2022-10-15T15:34:42;37.25;;;23.55;;
40373;SDS011;26079;45.958;12.492;2022-10-15T15:37:15;29.38;;;23.08;;
40373;SDS011;26079;45.958;12.492;2022-10-15T15:39:43;29.42;;;24.48;;
40373;SDS011;26079;45.958;12.492;2022-10-15T15:42:10;33.03;;;23.70;;
40373;SDS011;26079;45.958;12.492;2022-10-15T15:44:37;27.05;;;24.10;;
40373;SDS011;26079;45.958;12.492;2022-10-15T15:47:03;32.58;;;25.55;;
40373;SDS011;26079;45.958;12.492;2022-10-15T15:49:29;36.33;;;25.42;;
40373;SDS011;26079;45.958;12.492;2022-10-15T15:51:55;30.65;;;23.60;;
40373;SDS011;26079;45.958;12.492;2022-10-15T15:54:21;30.55;;;25.10;;
40373;SDS011;26079;45.958;12.492;2022-10-15T15:56:47;31.75;;;24.88;;
40373;SDS011;26079;45.958;12.492;2022-10-15T15:59:13;33.13;;;24.48;;
40373;SDS011;26079;45.958;12.492;2022-10-15T16:01:41;26.45;;;22.40;;
40373;SDS011;26079;45.958;12.492;2022-10-15T16:04:06;34.20;;;24.63;;
40373;SDS011;26079;45.958;12.492;2022-10-15T16:06:32;26.40;;;23.08;;
40373;SDS011;26079;45.958;12.492;2022-10-15T16:08:58;31.80;;;25.30;;
40373;SDS011;26079;45.958;12.492;2022-10-15T16:11:24;26.00;;;23.05;;
40373;SDS011;26079;45.958;12.492;2022-10-15T16:13:51;31.33;;;25.50;;
40373;SDS011;26079;45.958;12.492;2022-10-15T16:16:16;36.75;;;24.77;;
40373;SDS011;26079;45.958;12.492;2022-10-15T16:18:42;33.80;;;26.10;;
40373;SDS011;26079;45.958;12.492;2022-10-15T16:21:08;32.08;;;25.23;;
40373;SDS011;26079;45.958;12.492;2022-10-15T16:23:34;33.38;;;26.90;;
40373;SDS011;26079;45.958;12.492;2022-10-15T16:26:00;33.00;;;27.83;;
40373;SDS011;26079;45.958;12.492;2022-10-15T16:28:25;42.03;;;30.23;;
40373;SDS011;26079;45.958;12.492;2022-10-15T16:30:51;34.47;;;28.45;;
40373;SDS011;26079;45.958;12.492;2022-10-15T16:33:18;35.17;;;26.52;;
40373;SDS011;26079;45.958;12.492;2022-10-15T16:35:43;48.55;;;38.00;;